createdAt,value
2022-12-24T00:00:29.962Z,985.07
2022-12-24T00:01:29.929Z,985.14
2022-12-24T00:02:30.066Z,985.14
2022-12-24T00:03:30.116Z,985.18
2022-12-24T00:04:29.951Z,985.14
2022-12-24T00:05:29.928Z,985.15
2022-12-24T00:06:29.920Z,985.18
2022-12-24T00:07:29.923Z,985.20
2022-12-24T00:08:29.919Z,985.22
2022-12-24T00:09:29.940Z,985.05
2022-12-24T00:10:29.940Z,985.14
2022-12-24T00:11:29.953Z,985.09
2022-12-24T00:12:29.948Z,985.14
2022-12-24T00:13:29.942Z,985.18
2022-12-24T00:14:29.946Z,985.13
2022-12-24T00:15:29.930Z,985.06
2022-12-24T00:16:30.013Z,985.11
2022-12-24T00:17:29.947Z,984.92
2022-12-24T00:18:29.937Z,985.09
2022-12-24T00:19:29.935Z,985.14
2022-12-24T00:20:29.946Z,985.22
2022-12-24T00:21:29.951Z,985.24
2022-12-24T00:22:29.916Z,985.25
2022-12-24T00:23:29.932Z,985.31
2022-12-24T00:24:29.957Z,985.26
2022-12-24T00:25:29.944Z,985.31
2022-12-24T00:26:29.969Z,985.23
2022-12-24T00:27:29.952Z,985.25
2022-12-24T00:28:29.948Z,985.24
2022-12-24T00:29:29.921Z,985.37
2022-12-24T00:30:30.092Z,985.35
2022-12-24T00:31:30.081Z,985.32
2022-12-24T00:32:29.967Z,985.34
2022-12-24T00:33:29.959Z,985.41
2022-12-24T00:34:29.953Z,985.29
2022-12-24T00:35:30.028Z,985.41
2022-12-24T00:36:29.943Z,985.40
2022-12-24T00:37:29.951Z,985.44
2022-12-24T00:38:29.964Z,985.43
2022-12-24T00:39:29.971Z,985.38
2022-12-24T00:40:29.972Z,985.40
2022-12-24T00:41:29.965Z,985.50
2022-12-24T00:42:29.946Z,985.49
2022-12-24T00:43:29.947Z,985.42
2022-12-24T00:44:29.961Z,985.47
2022-12-24T00:45:29.995Z,985.46
2022-12-24T00:46:30.037Z,985.50
2022-12-24T00:47:29.960Z,985.44
2022-12-24T00:48:29.984Z,985.43
2022-12-24T00:49:29.982Z,985.46
2022-12-24T00:50:29.982Z,985.51
2022-12-24T00:51:30.043Z,985.48
2022-12-24T00:52:29.951Z,985.40
2022-12-24T00:53:29.959Z,985.50
2022-12-24T00:54:29.980Z,985.42
2022-12-24T00:55:29.974Z,985.46
2022-12-24T00:56:29.998Z,985.37
2022-12-24T00:57:29.973Z,985.32
2022-12-24T00:58:29.981Z,985.31
2022-12-24T00:59:29.969Z,985.28
2022-12-24T01:00:30.000Z,985.37
2022-12-24T01:01:30.128Z,985.42
2022-12-24T01:02:30.081Z,985.47
2022-12-24T01:03:29.981Z,985.46
2022-12-24T01:04:29.969Z,985.52
2022-12-24T01:05:29.980Z,985.48
2022-12-24T01:06:29.976Z,985.47
2022-12-24T01:07:30.000Z,985.52
2022-12-24T01:08:30.007Z,985.47
2022-12-24T01:09:29.990Z,985.55
2022-12-24T01:10:29.979Z,985.47
2022-12-24T01:11:29.979Z,985.51
2022-12-24T01:12:29.992Z,985.49
2022-12-24T01:13:30.005Z,985.53
2022-12-24T01:14:30.007Z,985.56
2022-12-24T01:15:30.085Z,985.64
2022-12-24T01:16:30.093Z,985.65
2022-12-24T01:17:29.985Z,985.56
2022-12-24T01:18:30.033Z,985.54
2022-12-24T01:19:29.996Z,985.58
2022-12-24T01:20:29.989Z,985.63
2022-12-24T01:21:29.991Z,985.63
2022-12-24T01:22:30.013Z,985.56
2022-12-24T01:23:30.021Z,985.60
2022-12-24T01:24:29.989Z,985.60
2022-12-24T01:25:30.014Z,985.57
2022-12-24T01:26:30.007Z,985.63
2022-12-24T01:27:30.064Z,985.69
2022-12-24T01:28:30.030Z,985.67
2022-12-24T01:29:30.049Z,985.63
2022-12-24T01:30:30.019Z,985.68
2022-12-24T01:31:30.098Z,985.61
2022-12-24T01:32:30.038Z,985.67
2022-12-24T01:33:30.043Z,985.64
2022-12-24T01:34:30.034Z,985.67
2022-12-24T01:35:30.034Z,985.71
2022-12-24T01:36:30.055Z,985.66
2022-12-24T01:37:30.006Z,985.74
2022-12-24T01:38:30.126Z,985.81
2022-12-24T01:39:30.031Z,985.79
2022-12-24T01:40:29.990Z,985.90
2022-12-24T01:41:30.062Z,985.81
2022-12-24T01:42:30.039Z,985.74
2022-12-24T01:43:30.014Z,985.77
2022-12-24T01:44:36.082Z,985.77
2022-12-24T01:45:30.010Z,985.78
2022-12-24T01:46:30.124Z,985.78
2022-12-24T01:47:30.047Z,985.78
2022-12-24T01:48:30.035Z,985.86
2022-12-24T01:49:30.035Z,985.95
2022-12-24T01:50:30.053Z,985.95
2022-12-24T01:51:30.056Z,986.00
2022-12-24T01:52:30.047Z,985.96
2022-12-24T01:53:30.036Z,985.99
2022-12-24T01:54:30.008Z,986.04
2022-12-24T01:55:30.047Z,985.98
2022-12-24T01:56:30.044Z,985.98
2022-12-24T01:57:30.044Z,986.09
2022-12-24T01:58:30.041Z,986.17
2022-12-24T01:59:30.054Z,986.11
2022-12-24T02:00:30.039Z,986.10
2022-12-24T02:01:30.224Z,986.16
2022-12-24T02:02:30.245Z,986.13
2022-12-24T02:03:30.162Z,986.04
2022-12-24T02:04:30.046Z,986.20
2022-12-24T02:05:30.053Z,986.27
2022-12-24T02:06:30.067Z,986.20
2022-12-24T02:07:30.078Z,986.19
2022-12-24T02:08:30.042Z,986.22
2022-12-24T02:09:30.043Z,986.26
2022-12-24T02:10:30.060Z,986.22
2022-12-24T02:11:30.084Z,986.25
2022-12-24T02:12:30.079Z,986.29
2022-12-24T02:13:30.060Z,986.24
2022-12-24T02:14:30.039Z,986.22
2022-12-24T02:15:30.061Z,986.30
2022-12-24T02:16:30.122Z,986.24
2022-12-24T02:17:30.114Z,986.27
2022-12-24T02:18:30.078Z,986.34
2022-12-24T02:19:30.040Z,986.28
2022-12-24T02:20:30.051Z,986.34
2022-12-24T02:21:30.056Z,986.30
2022-12-24T02:22:30.086Z,986.29
2022-12-24T02:23:30.092Z,986.29
2022-12-24T02:24:30.074Z,986.20
2022-12-24T02:25:30.074Z,986.26
2022-12-24T02:26:30.078Z,986.21
2022-12-24T02:27:30.070Z,986.25
2022-12-24T02:28:30.086Z,986.37
2022-12-24T02:29:30.078Z,986.31
2022-12-24T02:30:30.079Z,986.31
2022-12-24T02:31:30.102Z,986.36
2022-12-24T02:32:30.060Z,986.47
2022-12-24T02:33:30.138Z,986.42
2022-12-24T02:34:30.084Z,986.42
2022-12-24T02:35:30.085Z,986.46
2022-12-24T02:36:30.091Z,986.44
2022-12-24T02:37:30.108Z,986.50
2022-12-24T02:38:30.095Z,986.55
2022-12-24T02:39:30.092Z,986.45
2022-12-24T02:40:30.093Z,986.46
2022-12-24T02:41:30.063Z,986.63
2022-12-24T02:42:30.089Z,986.56
2022-12-24T02:43:30.101Z,986.55
2022-12-24T02:44:30.096Z,986.62
2022-12-24T02:45:30.168Z,986.59
2022-12-24T02:46:30.101Z,986.58
2022-12-24T02:47:33.664Z,986.58
2022-12-24T02:48:30.160Z,986.63
2022-12-24T02:49:30.093Z,986.65
2022-12-24T02:50:30.084Z,986.63
2022-12-24T02:51:30.108Z,986.61
2022-12-24T02:52:30.130Z,986.70
2022-12-24T02:53:30.136Z,986.68
2022-12-24T02:54:30.096Z,986.68
2022-12-24T02:55:30.140Z,986.71
2022-12-24T02:56:30.102Z,986.81
2022-12-24T02:57:30.110Z,986.80
2022-12-24T02:58:30.143Z,986.78
2022-12-24T02:59:30.100Z,986.77
2022-12-24T03:00:30.139Z,986.75
2022-12-24T03:01:30.199Z,986.75
2022-12-24T03:02:30.274Z,986.80
2022-12-24T03:03:30.111Z,986.85
2022-12-24T03:04:30.121Z,986.91
2022-12-24T03:05:30.066Z,986.93
2022-12-24T03:06:30.117Z,986.94
2022-12-24T03:07:30.124Z,986.95
2022-12-24T03:08:30.147Z,987.00
2022-12-24T03:09:30.106Z,986.93
2022-12-24T03:10:30.133Z,986.93
2022-12-24T03:11:30.098Z,986.90
2022-12-24T03:12:30.119Z,986.89
2022-12-24T03:13:30.143Z,986.95
2022-12-24T03:14:30.120Z,987.04
2022-12-24T03:15:30.136Z,987.03
2022-12-24T03:16:30.191Z,987.07
2022-12-24T03:17:30.121Z,987.12
2022-12-24T03:18:30.139Z,987.07
2022-12-24T03:19:30.114Z,987.08
2022-12-24T03:20:30.133Z,987.06
2022-12-24T03:21:30.125Z,987.07
2022-12-24T03:22:30.110Z,986.99
2022-12-24T03:23:30.148Z,987.01
2022-12-24T03:24:30.156Z,987.05
2022-12-24T03:25:30.142Z,987.01
2022-12-24T03:26:30.148Z,987.04
2022-12-24T03:27:30.108Z,987.12
2022-12-24T03:28:30.130Z,987.08
2022-12-24T03:29:30.170Z,987.03
2022-12-24T03:30:30.127Z,987.10
2022-12-24T03:31:30.169Z,987.05
2022-12-24T03:32:30.124Z,987.12
2022-12-24T03:33:30.145Z,987.07
2022-12-24T03:34:30.147Z,987.20
2022-12-24T03:35:30.167Z,987.19
2022-12-24T03:36:30.151Z,987.19
2022-12-24T03:37:30.163Z,987.21
2022-12-24T03:38:30.155Z,987.25
2022-12-24T03:39:30.166Z,987.19
2022-12-24T03:40:30.147Z,987.21
2022-12-24T03:41:30.141Z,987.19
2022-12-24T03:42:30.162Z,987.27
2022-12-24T03:43:30.165Z,987.19
2022-12-24T03:44:30.134Z,987.24
2022-12-24T03:45:30.205Z,987.26
2022-12-24T03:46:30.124Z,987.24
2022-12-24T03:47:30.137Z,987.27
2022-12-24T03:48:32.874Z,987.32
2022-12-24T03:49:30.131Z,987.26
2022-12-24T03:50:30.125Z,987.30
2022-12-24T03:51:30.121Z,987.30
2022-12-24T03:52:30.146Z,987.27
2022-12-24T03:53:30.148Z,987.31
2022-12-24T03:54:30.150Z,987.28
2022-12-24T03:55:30.144Z,987.34
2022-12-24T03:56:30.151Z,987.35
2022-12-24T03:57:30.135Z,987.37
2022-12-24T03:58:30.145Z,987.39
2022-12-24T03:59:30.172Z,987.38
2022-12-24T04:00:30.144Z,987.43
2022-12-24T04:01:30.197Z,987.43
2022-12-24T04:02:30.349Z,987.42
2022-12-24T04:03:30.260Z,987.43
2022-12-24T04:04:30.156Z,987.45
2022-12-24T04:05:30.191Z,987.47
2022-12-24T04:06:30.145Z,987.45
2022-12-24T04:07:30.143Z,987.57
2022-12-24T04:08:30.151Z,987.55
2022-12-24T04:09:30.200Z,987.56
2022-12-24T04:10:30.170Z,987.51
2022-12-24T04:11:30.188Z,987.50
2022-12-24T04:12:30.190Z,987.60
2022-12-24T04:13:30.156Z,987.55
2022-12-24T04:14:30.170Z,987.57
2022-12-24T04:15:30.203Z,987.63
2022-12-24T04:16:30.190Z,987.54
2022-12-24T04:17:30.157Z,987.61
2022-12-24T04:18:30.167Z,987.59
2022-12-24T04:19:30.159Z,987.72
2022-12-24T04:20:30.175Z,987.59
2022-12-24T04:21:30.185Z,987.60
2022-12-24T04:22:30.181Z,987.66
2022-12-24T04:23:30.183Z,987.73
2022-12-24T04:24:30.187Z,987.59
2022-12-24T04:25:30.186Z,987.62
2022-12-24T04:26:30.156Z,987.60
2022-12-24T04:27:30.776Z,987.65
2022-12-24T04:28:30.198Z,987.61
2022-12-24T04:29:30.152Z,987.65
2022-12-24T04:30:30.206Z,987.75
2022-12-24T04:31:30.239Z,987.77
2022-12-24T04:32:30.187Z,987.72
2022-12-24T04:33:30.172Z,987.76
2022-12-24T04:34:30.207Z,987.72
2022-12-24T04:35:30.185Z,987.79
2022-12-24T04:36:30.190Z,987.80
2022-12-24T04:37:30.186Z,987.78
2022-12-24T04:38:30.186Z,987.83
2022-12-24T04:39:30.205Z,987.84
2022-12-24T04:40:30.236Z,987.85
2022-12-24T04:41:30.228Z,987.86
2022-12-24T04:42:30.187Z,987.91
2022-12-24T04:43:30.226Z,987.85
2022-12-24T04:44:30.184Z,987.86
2022-12-24T04:45:30.242Z,987.84
2022-12-24T04:46:30.264Z,987.84
2022-12-24T04:47:30.194Z,987.91
2022-12-24T04:48:30.187Z,987.92
2022-12-24T04:49:30.187Z,987.90
2022-12-24T04:50:30.198Z,987.91
2022-12-24T04:51:30.212Z,987.92
2022-12-24T04:52:30.203Z,987.87
2022-12-24T04:53:30.195Z,987.90
2022-12-24T04:54:30.189Z,987.93
2022-12-24T04:55:30.207Z,987.89
2022-12-24T04:56:30.238Z,987.85
2022-12-24T04:57:30.194Z,987.93
2022-12-24T04:58:30.203Z,987.91
2022-12-24T04:59:30.213Z,987.90
2022-12-24T05:00:30.187Z,987.84
2022-12-24T05:01:30.362Z,987.89
2022-12-24T05:02:30.496Z,987.85
2022-12-24T05:03:30.292Z,987.79
2022-12-24T05:04:30.217Z,987.78
2022-12-24T05:05:30.232Z,987.82
2022-12-24T05:06:30.233Z,987.84
2022-12-24T05:07:30.225Z,987.83
2022-12-24T05:08:30.226Z,987.78
2022-12-24T05:09:30.206Z,987.80
2022-12-24T05:10:30.217Z,987.80
2022-12-24T05:11:30.222Z,987.81
2022-12-24T05:12:30.233Z,987.83
2022-12-24T05:13:39.084Z,987.79
2022-12-24T05:14:30.227Z,987.80
2022-12-24T05:15:30.222Z,987.77
2022-12-24T05:16:30.252Z,987.82
2022-12-24T05:17:30.220Z,987.89
2022-12-24T05:18:30.241Z,988.01
2022-12-24T05:19:30.252Z,987.88
2022-12-24T05:20:30.220Z,987.86
2022-12-24T05:21:30.230Z,987.88
2022-12-24T05:22:30.228Z,987.87
2022-12-24T05:23:30.245Z,987.94
2022-12-24T05:24:30.241Z,987.84
2022-12-24T05:25:30.244Z,987.86
2022-12-24T05:26:30.233Z,987.84
2022-12-24T05:27:30.207Z,987.91
2022-12-24T05:28:30.236Z,987.85
2022-12-24T05:29:30.242Z,987.84
2022-12-24T05:30:30.247Z,987.78
2022-12-24T05:31:30.246Z,987.87
2022-12-24T05:32:30.232Z,987.86
2022-12-24T05:33:30.230Z,987.94
2022-12-24T05:34:30.297Z,987.91
2022-12-24T05:35:30.234Z,987.96
2022-12-24T05:36:30.263Z,988.02
2022-12-24T05:37:30.243Z,987.89
2022-12-24T05:38:30.235Z,987.94
2022-12-24T05:39:30.269Z,987.90
2022-12-24T05:40:30.249Z,987.91
2022-12-24T05:41:30.236Z,987.85
2022-12-24T05:42:30.249Z,987.92
2022-12-24T05:43:30.254Z,987.94
2022-12-24T05:44:30.305Z,987.90
2022-12-24T05:45:30.246Z,987.93
2022-12-24T05:46:30.327Z,988.03
2022-12-24T05:47:30.271Z,988.06
2022-12-24T05:48:30.260Z,987.96
2022-12-24T05:49:30.276Z,988.06
2022-12-24T05:50:30.255Z,988.06
2022-12-24T05:51:30.276Z,988.12
2022-12-24T05:52:30.265Z,988.08
2022-12-24T05:53:30.288Z,988.14
2022-12-24T05:54:30.257Z,988.06
2022-12-24T05:55:30.285Z,988.14
2022-12-24T05:56:30.266Z,988.17
2022-12-24T05:57:30.274Z,988.16
2022-12-24T05:58:30.272Z,988.10
2022-12-24T05:59:30.313Z,988.16
2022-12-24T06:00:30.265Z,988.11
2022-12-24T06:01:30.329Z,988.15
2022-12-24T06:02:30.313Z,988.20
2022-12-24T06:03:30.309Z,988.26
2022-12-24T06:04:30.370Z,988.22
2022-12-24T06:05:30.297Z,988.20
2022-12-24T06:06:30.274Z,988.23
2022-12-24T06:07:30.303Z,988.22
2022-12-24T06:08:30.315Z,988.25
2022-12-24T06:09:30.327Z,988.30
2022-12-24T06:10:30.294Z,988.29
2022-12-24T06:11:30.281Z,988.33
2022-12-24T06:12:30.278Z,988.42
2022-12-24T06:13:30.281Z,988.40
2022-12-24T06:14:30.276Z,988.35
2022-12-24T06:15:30.303Z,988.45
2022-12-24T06:16:30.418Z,988.44
2022-12-24T06:17:30.259Z,988.40
2022-12-24T06:18:30.274Z,988.40
2022-12-24T06:19:30.278Z,988.38
2022-12-24T06:20:30.296Z,988.36
2022-12-24T06:21:30.287Z,988.50
2022-12-24T06:22:30.288Z,988.48
2022-12-24T06:23:30.308Z,988.54
2022-12-24T06:24:30.298Z,988.56
2022-12-24T06:25:30.297Z,988.57
2022-12-24T06:26:30.281Z,988.58
2022-12-24T06:27:30.279Z,988.66
2022-12-24T06:28:30.285Z,988.70
2022-12-24T06:29:30.296Z,988.68
2022-12-24T06:30:30.301Z,988.76
2022-12-24T06:31:30.438Z,988.74
2022-12-24T06:32:30.294Z,988.76
2022-12-24T06:33:30.301Z,988.58
2022-12-24T06:34:30.295Z,988.69
2022-12-24T06:35:30.292Z,988.68
2022-12-24T06:36:30.371Z,988.71
2022-12-24T06:37:30.325Z,988.68
2022-12-24T06:38:30.320Z,988.63
2022-12-24T06:39:30.305Z,988.68
2022-12-24T06:40:30.311Z,988.66
2022-12-24T06:41:30.316Z,988.70
2022-12-24T06:42:30.444Z,988.72
2022-12-24T06:43:30.307Z,988.80
2022-12-24T06:44:30.324Z,988.73
2022-12-24T06:45:30.330Z,988.76
2022-12-24T06:46:30.363Z,988.76
2022-12-24T06:47:30.404Z,988.72
2022-12-24T06:48:30.331Z,988.60
2022-12-24T06:49:30.307Z,988.68
2022-12-24T06:50:30.322Z,988.57
2022-12-24T06:51:30.349Z,988.66
2022-12-24T06:52:30.323Z,988.70
2022-12-24T06:53:30.314Z,988.70
2022-12-24T06:54:30.323Z,988.70
2022-12-24T06:55:30.312Z,988.78
2022-12-24T06:56:30.325Z,988.74
2022-12-24T06:57:30.343Z,988.77
2022-12-24T06:58:30.367Z,988.83
2022-12-24T06:59:30.332Z,988.87
2022-12-24T07:00:30.389Z,988.94
2022-12-24T07:01:30.458Z,988.94
2022-12-24T07:02:34.538Z,988.88
2022-12-24T07:03:30.443Z,988.97
2022-12-24T07:04:30.448Z,988.97
2022-12-24T07:05:30.359Z,988.92
2022-12-24T07:06:30.368Z,988.87
2022-12-24T07:07:30.367Z,988.92
2022-12-24T07:08:30.372Z,988.86
2022-12-24T07:09:30.333Z,988.89
2022-12-24T07:10:30.432Z,988.89
2022-12-24T07:11:30.365Z,988.89
2022-12-24T07:12:30.378Z,988.96
2022-12-24T07:13:30.364Z,988.97
2022-12-24T07:14:30.394Z,988.87
2022-12-24T07:15:30.375Z,988.92
2022-12-24T07:16:30.464Z,989.01
2022-12-24T07:17:30.457Z,989.03
2022-12-24T07:18:30.447Z,988.96
2022-12-24T07:19:30.371Z,988.98
2022-12-24T07:20:30.356Z,988.97
2022-12-24T07:21:30.352Z,988.97
2022-12-24T07:22:30.375Z,989.00
2022-12-24T07:23:30.360Z,988.99
2022-12-24T07:24:30.380Z,989.05
2022-12-24T07:25:30.361Z,989.06
2022-12-24T07:26:30.369Z,989.12
2022-12-24T07:27:30.389Z,989.15
2022-12-24T07:28:30.365Z,989.15
2022-12-24T07:29:30.380Z,989.11
2022-12-24T07:30:30.383Z,989.12
2022-12-24T07:31:30.423Z,989.12
2022-12-24T07:32:30.379Z,989.10
2022-12-24T07:33:30.423Z,989.10
2022-12-24T07:34:30.404Z,989.21
2022-12-24T07:35:30.372Z,989.22
2022-12-24T07:36:30.366Z,989.28
2022-12-24T07:37:30.432Z,989.28
2022-12-24T07:38:30.386Z,989.26
2022-12-24T07:39:30.373Z,989.29
2022-12-24T07:40:30.410Z,989.25
2022-12-24T07:41:30.812Z,989.36
2022-12-24T07:42:30.404Z,989.28
2022-12-24T07:43:30.429Z,989.34
2022-12-24T07:44:30.408Z,989.38
2022-12-24T07:45:30.404Z,989.33
2022-12-24T07:46:30.467Z,989.38
2022-12-24T07:47:30.422Z,989.31
2022-12-24T07:48:30.416Z,989.36
2022-12-24T07:49:30.450Z,989.36
2022-12-24T07:50:30.425Z,989.42
2022-12-24T07:51:30.389Z,989.43
2022-12-24T07:52:30.387Z,989.44
2022-12-24T07:53:30.422Z,989.44
2022-12-24T07:54:30.404Z,989.33
2022-12-24T07:55:30.429Z,989.40
2022-12-24T07:56:30.389Z,989.41
2022-12-24T07:57:30.407Z,989.55
2022-12-24T07:58:30.409Z,989.63
2022-12-24T07:59:30.425Z,989.54
2022-12-24T08:00:30.400Z,989.61
2022-12-24T08:01:30.571Z,989.67
2022-12-24T08:02:30.491Z,989.61
2022-12-24T08:03:30.501Z,989.63
2022-12-24T08:04:30.428Z,989.58
2022-12-24T08:05:30.431Z,989.60
2022-12-24T08:06:30.406Z,989.69
2022-12-24T08:07:30.445Z,989.70
2022-12-24T08:08:30.426Z,989.71
2022-12-24T08:09:30.457Z,989.79
2022-12-24T08:10:30.441Z,989.76
2022-12-24T08:11:30.445Z,989.73
2022-12-24T08:12:30.449Z,989.78
2022-12-24T08:13:30.438Z,989.71
2022-12-24T08:14:30.420Z,989.67
2022-12-24T08:15:30.451Z,989.70
2022-12-24T08:16:30.551Z,989.84
2022-12-24T08:17:32.586Z,989.73
2022-12-24T08:18:30.425Z,989.74
2022-12-24T08:19:30.423Z,989.69
2022-12-24T08:20:30.460Z,989.71
2022-12-24T08:21:30.408Z,989.62
2022-12-24T08:22:30.503Z,989.69
2022-12-24T08:23:30.862Z,989.69
2022-12-24T08:24:30.450Z,989.71
2022-12-24T08:25:30.420Z,989.58
2022-12-24T08:26:30.431Z,989.69
2022-12-24T08:27:30.448Z,989.59
2022-12-24T08:28:30.438Z,989.63
2022-12-24T08:29:30.421Z,989.72
2022-12-24T08:30:30.511Z,989.63
2022-12-24T08:31:30.568Z,989.69
2022-12-24T08:32:30.496Z,989.62
2022-12-24T08:33:30.463Z,989.69
2022-12-24T08:34:30.452Z,989.78
2022-12-24T08:35:30.466Z,989.72
2022-12-24T08:36:30.441Z,989.78
2022-12-24T08:37:30.444Z,989.68
2022-12-24T08:38:30.450Z,989.75
2022-12-24T08:39:30.631Z,989.70
2022-12-24T08:40:30.474Z,989.80
2022-12-24T08:41:30.514Z,989.73
2022-12-24T08:42:30.600Z,989.74
2022-12-24T08:43:30.524Z,989.72
2022-12-24T08:44:30.509Z,989.91
2022-12-24T08:45:36.184Z,989.98
2022-12-24T08:46:30.571Z,989.85
2022-12-24T08:47:30.519Z,990.02
2022-12-24T08:48:30.533Z,989.95
2022-12-24T08:49:30.532Z,989.94
2022-12-24T08:50:30.533Z,989.89
2022-12-24T08:51:30.573Z,989.95
2022-12-24T08:52:30.532Z,989.94
2022-12-24T08:53:30.522Z,989.91
2022-12-24T08:54:30.529Z,989.92
2022-12-24T08:55:30.532Z,989.96
2022-12-24T08:56:30.551Z,990.01
2022-12-24T08:57:30.551Z,990.00
2022-12-24T08:58:30.554Z,990.09
2022-12-24T08:59:30.527Z,990.00
2022-12-24T09:00:30.534Z,989.96
2022-12-24T09:01:30.802Z,990.06
2022-12-24T09:02:30.640Z,990.05
2022-12-24T09:03:30.580Z,990.10
2022-12-24T09:04:30.535Z,990.05
2022-12-24T09:05:30.550Z,990.11
2022-12-24T09:06:30.535Z,990.10
2022-12-24T09:07:30.569Z,990.10
2022-12-24T09:08:30.567Z,990.11
2022-12-24T09:09:37.574Z,990.12
2022-12-24T09:10:30.560Z,990.17
2022-12-24T09:11:30.537Z,990.22
2022-12-24T09:12:30.589Z,990.24
2022-12-24T09:13:30.555Z,990.23
2022-12-24T09:14:30.544Z,990.21
2022-12-24T09:15:30.572Z,990.25
2022-12-24T09:16:30.620Z,990.31
2022-12-24T09:17:30.590Z,990.28
2022-12-24T09:18:30.598Z,990.22
2022-12-24T09:19:30.599Z,990.20
2022-12-24T09:20:30.586Z,990.25
2022-12-24T09:21:30.588Z,990.30
2022-12-24T09:22:30.581Z,990.22
2022-12-24T09:23:30.601Z,990.22
2022-12-24T09:24:30.585Z,990.33
2022-12-24T09:25:30.594Z,990.23
2022-12-24T09:26:30.604Z,990.29
2022-12-24T09:27:30.568Z,990.30
2022-12-24T09:28:30.573Z,990.33
2022-12-24T09:29:30.669Z,990.43
2022-12-24T09:30:30.996Z,990.32
2022-12-24T09:31:30.720Z,990.32
2022-12-24T09:32:30.722Z,990.31
2022-12-24T09:33:30.830Z,990.35
2022-12-24T09:34:31.027Z,990.29
2022-12-24T09:35:30.824Z,990.35
2022-12-24T09:36:30.835Z,990.38
2022-12-24T09:37:30.865Z,990.40
2022-12-24T09:38:30.789Z,990.36
2022-12-24T09:39:30.743Z,990.38
2022-12-24T09:51:30.968Z,990.69
2022-12-24T09:52:30.978Z,990.58
2022-12-24T09:53:30.978Z,990.60
2022-12-24T09:56:30.992Z,990.75
2022-12-24T09:57:30.995Z,990.87
2022-12-24T09:58:30.987Z,990.80
2022-12-24T09:59:31.000Z,990.74
2022-12-24T10:01:15.232Z,990.77
2022-12-24T10:02:14.955Z,990.83
2022-12-24T10:03:14.874Z,990.70
2022-12-24T10:04:14.783Z,990.78
2022-12-24T10:05:14.824Z,990.77
2022-12-24T10:06:14.800Z,990.79
2022-12-24T10:07:14.813Z,990.84
2022-12-24T10:08:14.791Z,990.78
2022-12-24T10:09:14.796Z,990.79
2022-12-24T10:10:14.808Z,990.77
2022-12-24T10:11:14.819Z,990.71
2022-12-24T10:12:14.797Z,990.81
2022-12-24T10:13:14.789Z,990.92
2022-12-24T10:14:14.788Z,990.91
2022-12-24T10:15:14.787Z,990.94
2022-12-24T10:16:14.835Z,990.87
2022-12-24T10:17:14.849Z,990.88
2022-12-24T10:18:14.808Z,990.95
2022-12-24T10:19:14.788Z,990.98
2022-12-24T10:20:14.806Z,990.90
2022-12-24T10:21:14.872Z,990.92
2022-12-24T10:22:14.792Z,990.92
2022-12-24T10:23:14.802Z,991.01
2022-12-24T10:24:14.804Z,990.94
2022-12-24T10:25:14.831Z,990.96
2022-12-24T10:26:14.800Z,990.96
2022-12-24T10:27:14.826Z,991.00
2022-12-24T10:28:14.829Z,991.01
2022-12-24T10:29:14.802Z,991.00
2022-12-24T10:30:17.329Z,990.97
2022-12-24T10:31:14.883Z,991.02
2022-12-24T10:32:14.821Z,991.02
2022-12-24T10:33:14.786Z,991.01
2022-12-24T10:34:14.809Z,991.05
2022-12-24T10:35:14.837Z,991.04
2022-12-24T10:36:14.818Z,990.97
2022-12-24T10:37:14.950Z,991.04
2022-12-24T10:38:14.947Z,991.06
2022-12-24T10:39:15.060Z,990.99
2022-12-24T10:40:15.090Z,991.00
2022-12-24T10:41:15.119Z,990.96
2022-12-24T10:42:15.066Z,990.98
2022-12-24T10:43:15.092Z,990.94
2022-12-24T10:44:15.072Z,990.88
2022-12-24T10:45:15.076Z,990.95
2022-12-24T10:46:15.136Z,990.94
2022-12-24T10:47:15.077Z,990.97
2022-12-24T10:48:15.188Z,990.95
2022-12-24T10:49:15.202Z,990.94
2022-12-24T10:50:15.161Z,990.90
2022-12-24T10:51:15.193Z,990.90
2022-12-24T10:52:15.215Z,990.99
2022-12-24T10:53:15.362Z,990.91
2022-12-24T10:54:19.470Z,990.97
2022-12-24T10:55:15.322Z,990.93
2022-12-24T10:56:15.348Z,990.97
2022-12-24T10:57:15.326Z,990.96
2022-12-24T10:58:15.359Z,991.03
2022-12-24T10:59:15.368Z,990.98
2022-12-24T11:00:15.341Z,991.04
2022-12-24T11:01:15.424Z,991.02
2022-12-24T11:02:15.475Z,991.14
2022-12-24T11:03:15.369Z,991.05
2022-12-24T11:04:15.345Z,991.12
2022-12-24T11:05:15.351Z,991.11
2022-12-24T11:06:15.409Z,991.06
2022-12-24T11:07:15.357Z,991.09
2022-12-24T11:08:15.339Z,991.11
2022-12-24T11:09:15.353Z,991.10
2022-12-24T11:10:15.371Z,991.12
2022-12-24T11:11:15.353Z,991.08
2022-12-24T11:12:15.338Z,991.09
2022-12-24T11:13:36.732Z,991.11
2022-12-24T11:14:15.370Z,990.99
2022-12-24T11:15:15.337Z,990.99
2022-12-24T11:16:15.455Z,991.00
2022-12-24T11:17:15.371Z,991.06
2022-12-24T11:18:15.339Z,991.01
2022-12-24T11:19:15.376Z,990.98
2022-12-24T11:20:15.343Z,990.91
2022-12-24T11:21:15.348Z,990.95
2022-12-24T11:22:15.376Z,990.95
2022-12-24T11:23:15.373Z,991.02
2022-12-24T11:24:15.387Z,991.05
2022-12-24T11:25:15.371Z,991.04
2022-12-24T11:26:15.361Z,990.99
2022-12-24T11:27:15.369Z,990.98
2022-12-24T11:28:15.373Z,991.00
2022-12-24T11:29:15.366Z,991.06
2022-12-24T11:30:15.394Z,991.03
2022-12-24T11:31:15.429Z,991.01
2022-12-24T11:32:15.358Z,991.01
2022-12-24T11:33:15.391Z,990.92
2022-12-24T11:34:15.371Z,990.99
2022-12-24T11:35:15.382Z,991.02
2022-12-24T11:36:15.392Z,991.01
2022-12-24T11:37:15.532Z,991.04
2022-12-24T11:38:15.465Z,990.97
2022-12-24T11:39:15.443Z,990.95
2022-12-24T11:40:15.449Z,990.96
2022-12-24T11:41:15.489Z,990.95
2022-12-24T11:42:15.488Z,991.00
2022-12-24T11:43:15.475Z,990.99
2022-12-24T11:44:15.473Z,990.93
2022-12-24T11:45:15.448Z,990.93
2022-12-24T11:46:15.497Z,990.87
2022-12-24T11:47:15.458Z,990.84
2022-12-24T11:48:15.463Z,990.87
2022-12-24T11:49:15.469Z,990.83
2022-12-24T11:50:18.629Z,990.76
2022-12-24T11:51:15.465Z,990.80
2022-12-24T11:52:15.458Z,990.77
2022-12-24T11:53:15.476Z,990.82
2022-12-24T11:54:15.462Z,990.79
2022-12-24T11:55:16.446Z,990.74
2022-12-24T11:56:15.464Z,990.77
2022-12-24T11:57:15.490Z,990.81
2022-12-24T11:58:15.492Z,990.76
2022-12-24T11:59:15.537Z,990.80
2022-12-24T12:00:15.495Z,990.66
2022-12-24T12:01:16.176Z,990.76
2022-12-24T12:02:15.558Z,990.81
2022-12-24T12:03:15.578Z,990.72
2022-12-24T12:04:15.584Z,990.73
2022-12-24T12:05:15.476Z,990.72
2022-12-24T12:06:15.472Z,990.78
2022-12-24T12:07:15.581Z,990.82
2022-12-24T12:08:15.545Z,990.76
2022-12-24T12:09:15.485Z,990.81
2022-12-24T12:10:15.523Z,990.84
2022-12-24T12:11:15.500Z,990.85
2022-12-24T12:12:15.526Z,990.82
2022-12-24T12:13:16.295Z,990.78
2022-12-24T12:14:15.503Z,990.86
2022-12-24T12:15:15.488Z,990.88
2022-12-24T12:16:15.598Z,990.85
2022-12-24T12:17:15.510Z,990.94
2022-12-24T12:18:15.495Z,990.87
2022-12-24T12:19:15.670Z,990.93
2022-12-24T12:20:15.506Z,990.91
2022-12-24T12:21:15.500Z,990.86
2022-12-24T12:22:15.517Z,990.86
2022-12-24T12:23:15.494Z,990.83
2022-12-24T12:24:15.523Z,990.80
2022-12-24T12:25:15.505Z,990.80
2022-12-24T12:26:15.522Z,990.78
2022-12-24T12:27:15.507Z,990.85
2022-12-24T12:28:15.529Z,990.81
2022-12-24T12:29:15.507Z,990.86
2022-12-24T12:30:15.539Z,990.88
2022-12-24T12:31:16.431Z,990.83
2022-12-24T12:32:15.500Z,990.82
2022-12-24T12:33:15.632Z,990.86
2022-12-24T12:34:15.529Z,990.93
2022-12-24T12:35:15.542Z,990.94
2022-12-24T12:36:15.538Z,990.89
2022-12-24T12:37:15.595Z,990.88
2022-12-24T12:38:15.612Z,990.96
2022-12-24T12:39:15.613Z,990.96
2022-12-24T12:40:15.620Z,990.96
2022-12-24T12:41:15.645Z,990.99
2022-12-24T12:42:15.629Z,990.98